KSGH/SGH METAR and TAF weather

Enter ICAO airport designator
Station Type Date Time Source
KSGH METAR 2020/04/02 02:56 UTC NOAA

KSGH 020256Z AUTO 36004KT 10SM OVC065 06/04 A3008 RMK AO2 RAB0158E10 SLP193 P0000 60001 T00560044 51013


Station Type Date Time Source
KSGH Decoded METAR 2020/04/02 02:56 UTC NOAA

Springfield, Springfield-Beckley Municipal Airport, OH, United States (KSGH) 39-50-25N 083-50-24W
Apr 01, 2020 - 10:56 PM EDT / 2020.04.02 0256 UTC
Wind: from the N (360 degrees) at 5 MPH (4 KT):0
Visibility: 10 mile(s):0
Sky conditions: overcast
Precipitation last hour: A trace
Temperature: 42.1 F (5.6 C)
Dew Point: 39.9 F (4.4 C)
Relative Humidity: 91%
Pressure (altimeter): 30.08 in. Hg (1018 hPa)
Pressure tendency: 0.04 inches (1.3 hPa) higher than three hours ago
ob: KSGH 020256Z AUTO 36004KT 10SM OVC065 06/04 A3008 RMK AO2 RAB0158E10 SLP193 P0000 60001 T00560044 51013
cycle: 3

Station Type Date Time Source
KSGH TAF UTC NOAA

Error!

Example: see airport list